createdAt,value
2019-02-16T00:02:13.406Z,5.87
2019-02-16T00:04:42.621Z,6.57
2019-02-16T00:07:12.366Z,5.80
2019-02-16T00:09:41.428Z,6.37
2019-02-16T00:12:10.627Z,6.13
2019-02-16T00:14:41.878Z,6.50
2019-02-16T00:17:11.213Z,5.87
2019-02-16T00:19:42.407Z,6.17
2019-02-16T00:22:11.869Z,5.70
2019-02-16T00:24:40.988Z,5.30
2019-02-16T00:27:10.458Z,5.20
2019-02-16T00:29:40.544Z,5.10
2019-02-16T00:32:10.400Z,5.83
2019-02-16T00:34:39.769Z,5.43
2019-02-16T00:37:08.989Z,5.53
2019-02-16T00:39:38.189Z,5.67
2019-02-16T00:42:07.798Z,6.27
2019-02-16T00:44:37.479Z,5.67
2019-02-16T00:47:06.898Z,6.17
2019-02-16T00:49:36.548Z,5.50
2019-02-16T00:52:05.801Z,5.73
2019-02-16T00:54:35.222Z,5.63
2019-02-16T00:57:05.942Z,5.50
2019-02-16T00:59:36.374Z,5.90
2019-02-16T01:02:06.089Z,6.17
2019-02-16T01:04:36.514Z,5.80
2019-02-16T01:07:07.017Z,5.60
2019-02-16T01:09:36.627Z,6.60
2019-02-16T01:12:05.950Z,5.57
2019-02-16T01:14:35.603Z,6.30
2019-02-16T01:17:05.278Z,5.87
2019-02-16T01:19:34.963Z,5.63
2019-02-16T01:22:03.957Z,5.73
2019-02-16T01:24:35.862Z,5.97
2019-02-16T01:27:06.939Z,5.53
2019-02-16T01:29:48.707Z,6.10
2019-02-16T01:32:22.336Z,5.60
2019-02-16T01:34:55.152Z,6.10
2019-02-16T01:37:30.275Z,6.00
2019-02-16T01:40:07.932Z,5.97
2019-02-16T01:42:39.537Z,5.83
2019-02-16T01:45:11.204Z,5.20
2019-02-16T01:47:45.267Z,5.80
2019-02-16T01:50:14.354Z,5.47
2019-02-16T01:52:56.278Z,5.63
2019-02-16T01:55:30.605Z,5.07
2019-02-16T01:58:00.138Z,5.60
2019-02-16T02:00:29.611Z,5.20
2019-02-16T02:02:59.676Z,5.87
2019-02-16T02:05:30.853Z,6.07
2019-02-16T02:08:02.759Z,5.00
2019-02-16T02:10:32.888Z,6.23
2019-02-16T02:13:04.586Z,5.60
2019-02-16T02:15:34.454Z,5.57
2019-02-16T02:18:04.344Z,5.20
2019-02-16T02:20:36.968Z,5.83
2019-02-16T02:23:11.069Z,5.10
2019-02-16T02:25:40.375Z,5.80
2019-02-16T02:28:09.793Z,5.20
2019-02-16T02:30:42.043Z,5.37
2019-02-16T02:33:11.046Z,5.27
2019-02-16T02:35:40.206Z,6.00
2019-02-16T02:38:10.135Z,5.43
2019-02-16T02:40:39.340Z,5.37
2019-02-16T02:43:08.237Z,5.00
2019-02-16T02:45:37.610Z,5.33
2019-02-16T02:48:08.385Z,4.90
2019-02-16T02:50:37.401Z,5.20
2019-02-16T02:53:07.058Z,5.97
2019-02-16T02:55:44.353Z,5.80
2019-02-16T02:58:14.197Z,6.10
2019-02-16T03:00:43.354Z,5.27
2019-02-16T03:03:13.062Z,5.23
2019-02-16T03:05:43.745Z,5.30
2019-02-16T03:08:13.317Z,5.60
2019-02-16T03:10:43.011Z,4.90
2019-02-16T03:13:13.141Z,6.00
2019-02-16T03:15:42.256Z,5.13
2019-02-16T03:18:12.593Z,5.63
2019-02-16T03:20:41.774Z,6.00
2019-02-16T03:23:18.561Z,5.57
2019-02-16T03:26:09.043Z,5.73
2019-02-16T03:29:18.676Z,5.87
2019-02-16T03:32:20.064Z,6.20
2019-02-16T03:35:29.546Z,5.73
2019-02-16T03:38:40.740Z,5.67
2019-02-16T03:41:12.860Z,5.60
2019-02-16T03:43:42.199Z,5.77
2019-02-16T03:46:12.034Z,5.93
2019-02-16T03:48:41.325Z,5.60
2019-02-16T03:51:10.368Z,6.40
2019-02-16T03:53:39.587Z,6.83
2019-02-16T03:56:08.608Z,5.70
2019-02-16T03:58:38.224Z,6.57
2019-02-16T04:01:07.535Z,6.30
2019-02-16T04:03:37.085Z,6.10
2019-02-16T04:06:06.814Z,6.10
2019-02-16T04:08:35.936Z,6.10
2019-02-16T04:11:05.481Z,6.13
2019-02-16T04:13:34.939Z,5.53
2019-02-16T04:16:04.468Z,5.70
2019-02-16T04:18:35.090Z,5.83
2019-02-16T04:21:05.217Z,5.97
2019-02-16T04:23:34.556Z,5.77
2019-02-16T04:26:08.029Z,5.53
2019-02-16T04:28:37.102Z,5.90
2019-02-16T04:31:06.743Z,6.67
2019-02-16T04:33:36.279Z,6.67
2019-02-16T04:36:05.943Z,6.33
2019-02-16T04:38:34.981Z,6.47
2019-02-16T04:41:06.399Z,6.80
2019-02-16T04:43:36.114Z,6.60
2019-02-16T04:46:05.699Z,6.10
2019-02-16T04:48:35.289Z,6.03
2019-02-16T04:51:06.159Z,6.27
2019-02-16T04:53:35.284Z,5.93
2019-02-16T04:56:04.599Z,6.40
2019-02-16T04:58:34.011Z,5.90
2019-02-16T05:01:03.858Z,6.17
2019-02-16T05:03:33.016Z,5.77
2019-02-16T05:06:02.520Z,6.57
2019-02-16T05:08:31.887Z,6.60
2019-02-16T05:11:01.396Z,6.40
2019-02-16T05:13:30.762Z,7.00
2019-02-16T05:16:00.245Z,6.67
2019-02-16T05:18:30.359Z,5.53
2019-02-16T05:21:01.497Z,6.00
2019-02-16T05:23:32.465Z,5.50
2019-02-16T05:26:03.163Z,5.93
2019-02-16T05:28:32.593Z,5.47
2019-02-16T05:31:02.257Z,6.27
2019-02-16T05:33:33.399Z,5.47
2019-02-16T05:36:03.015Z,5.53
2019-02-16T05:38:33.062Z,5.27
2019-02-16T05:41:02.752Z,5.00
2019-02-16T05:43:32.517Z,5.50
2019-02-16T05:46:02.502Z,4.87
2019-02-16T05:48:32.291Z,5.23
2019-02-16T05:51:01.533Z,4.27
2019-02-16T05:53:31.203Z,5.33
2019-02-16T05:56:01.660Z,4.60
2019-02-16T05:58:30.611Z,4.80
2019-02-16T06:01:00.429Z,4.93
2019-02-16T06:03:29.898Z,4.57
2019-02-16T06:05:59.171Z,4.00
2019-02-16T06:08:28.506Z,4.40
2019-02-16T06:10:59.169Z,4.20
2019-02-16T06:13:28.394Z,3.90
2019-02-16T06:15:57.431Z,3.60
2019-02-16T06:18:26.674Z,3.60
2019-02-16T06:20:56.207Z,3.40
2019-02-16T06:23:25.695Z,3.47
2019-02-16T06:25:55.646Z,3.30
2019-02-16T06:28:25.221Z,3.87
2019-02-16T06:30:54.610Z,3.40
2019-02-16T06:33:23.962Z,3.40
2019-02-16T06:36:02.599Z,3.53
2019-02-16T06:38:32.667Z,3.40
2019-02-16T06:41:02.352Z,3.00
2019-02-16T06:43:31.752Z,3.90
2019-02-16T06:46:01.388Z,4.00
2019-02-16T06:48:30.884Z,3.70
2019-02-16T06:51:00.760Z,3.40
2019-02-16T06:53:30.533Z,3.80
2019-02-16T06:56:03.860Z,4.43
2019-02-16T06:58:33.290Z,3.67
2019-02-16T07:01:03.320Z,3.80
2019-02-16T07:03:35.202Z,3.70
2019-02-16T07:06:04.485Z,3.93
2019-02-16T07:08:33.708Z,4.23
2019-02-16T07:11:03.086Z,4.37
2019-02-16T07:13:35.107Z,4.50
2019-02-16T07:16:32.410Z,3.90
2019-02-16T07:19:10.910Z,4.23
2019-02-16T07:21:40.249Z,4.10
2019-02-16T07:24:09.502Z,4.50
2019-02-16T07:26:38.874Z,4.37
2019-02-16T07:29:07.898Z,4.33
2019-02-16T07:31:37.895Z,4.53
2019-02-16T07:34:07.780Z,4.20
2019-02-16T07:36:37.722Z,3.57
2019-02-16T07:39:07.843Z,4.33
2019-02-16T07:41:36.966Z,4.50
2019-02-16T07:44:23.965Z,4.43
2019-02-16T07:47:09.081Z,5.10
2019-02-16T07:49:45.985Z,4.27
2019-02-16T07:52:26.307Z,5.17
2019-02-16T07:54:59.581Z,4.87
2019-02-16T07:57:43.242Z,4.30
2019-02-16T08:00:24.719Z,4.43
2019-02-16T08:03:08.426Z,4.53
2019-02-16T08:06:06.716Z,5.30
2019-02-16T08:09:10.461Z,3.63
2019-02-16T08:12:01.306Z,4.47
2019-02-16T08:14:58.945Z,4.83
2019-02-16T08:17:36.557Z,4.87
2019-02-16T08:20:28.548Z,5.00
2019-02-16T08:23:04.153Z,4.97
2019-02-16T08:25:55.505Z,4.97
2019-02-16T08:28:44.083Z,5.10
2019-02-16T08:31:26.923Z,4.37
2019-02-16T08:34:09.733Z,4.70
2019-02-16T08:37:13.524Z,5.10
2019-02-16T08:40:36.017Z,4.00
2019-02-16T08:47:22.200Z,4.10
2019-02-16T08:54:21.053Z,5.03
2019-02-16T08:56:56.824Z,4.47
2019-02-16T09:15:12.588Z,4.40
2019-02-16T09:17:53.792Z,3.90
2019-02-16T09:20:36.217Z,3.53
2019-02-16T09:23:42.057Z,3.60
2019-02-16T09:37:59.786Z,3.37
2019-02-16T09:40:48.406Z,3.03
2019-02-16T09:43:28.878Z,3.30
2019-02-16T09:46:13.425Z,3.92
2019-02-16T09:48:51.445Z,3.30
2019-02-16T09:51:31.121Z,3.85
2019-02-16T09:54:17.354Z,3.65
2019-02-16T09:56:55.501Z,3.63
2019-02-16T09:59:37.836Z,3.92
2019-02-16T10:02:29.349Z,5.33
2019-02-16T10:05:30.149Z,7.15
2019-02-16T10:08:21.579Z,4.75
2019-02-16T10:11:08.903Z,3.67
2019-02-16T10:13:56.519Z,3.97
2019-02-16T10:16:38.050Z,4.47
2019-02-16T10:19:32.632Z,4.17
2019-02-16T10:22:19.972Z,5.33
2019-02-16T10:25:12.948Z,4.00
2019-02-16T10:28:01.630Z,3.92
2019-02-16T10:30:40.494Z,3.72
2019-02-16T10:33:34.589Z,4.50
2019-02-16T10:36:23.284Z,4.03
2019-02-16T10:39:14.631Z,3.90
2019-02-16T10:41:53.694Z,4.87
2019-02-16T10:44:43.939Z,3.72
2019-02-16T10:47:36.165Z,3.15
2019-02-16T10:50:20.237Z,2.92
2019-02-16T10:53:08.786Z,2.93
2019-02-16T10:56:00.815Z,3.60
2019-02-16T10:59:01.549Z,3.40
2019-02-16T11:01:59.448Z,2.57
2019-02-16T11:04:56.927Z,2.90
2019-02-16T11:07:39.521Z,3.50
2019-02-16T11:10:24.570Z,3.17
2019-02-16T11:13:13.071Z,3.17
2019-02-16T11:16:01.855Z,4.37
2019-02-16T11:18:51.224Z,3.53
2019-02-16T11:21:59.441Z,3.40
2019-02-16T11:24:47.555Z,3.40
2019-02-16T11:27:40.607Z,3.20
2019-02-16T11:30:17.352Z,3.90
2019-02-16T11:33:13.564Z,3.60
2019-02-16T11:36:08.323Z,3.60
2019-02-16T11:39:03.490Z,3.03
2019-02-16T11:41:54.824Z,2.80
2019-02-16T11:44:31.546Z,3.07
2019-02-16T11:47:20.837Z,3.23
2019-02-16T11:50:07.178Z,3.10
2019-02-16T11:52:54.781Z,3.20
2019-02-16T11:55:52.030Z,2.70
2019-02-16T11:58:39.632Z,3.37
2019-02-16T12:02:01.773Z,3.13
2019-02-16T12:04:58.042Z,2.40
2019-02-16T12:07:39.228Z,1.80
2019-02-16T12:10:27.841Z,1.87
2019-02-16T12:13:24.078Z,1.50
2019-02-16T12:16:05.594Z,1.57
2019-02-16T12:18:57.491Z,1.60
2019-02-16T12:21:49.434Z,2.10
2019-02-16T12:24:43.470Z,2.13
2019-02-16T12:27:47.175Z,2.00
2019-02-16T12:30:34.641Z,1.67
2019-02-16T12:33:23.347Z,1.70
2019-02-16T12:36:15.060Z,1.83
2019-02-16T12:39:05.119Z,1.33
2019-02-16T12:41:48.092Z,1.30
2019-02-16T12:44:54.411Z,1.70
2019-02-16T12:47:43.565Z,1.80
2019-02-16T12:53:52.133Z,1.40
2019-02-16T12:56:50.283Z,1.30
2019-02-16T12:59:44.764Z,1.30
2019-02-16T13:02:32.162Z,1.30
2019-02-16T13:05:21.843Z,1.10
2019-02-16T13:08:10.920Z,1.30
2019-02-16T13:10:48.954Z,1.40
2019-02-16T13:13:42.993Z,1.50
2019-02-16T13:16:32.763Z,1.13
2019-02-16T13:19:23.063Z,1.40
2019-02-16T13:22:09.855Z,2.77
2019-02-16T13:24:51.776Z,2.37
2019-02-16T13:27:40.367Z,1.00
2019-02-16T13:30:25.328Z,1.10
2019-02-16T13:33:14.895Z,1.20
2019-02-16T13:36:03.057Z,1.47
2019-02-16T13:39:05.867Z,1.40
2019-02-16T13:41:59.999Z,2.17
2019-02-16T13:44:52.812Z,1.10
2019-02-16T13:47:40.359Z,1.13
2019-02-16T13:51:05.733Z,1.73
2019-02-16T13:53:42.509Z,3.03
2019-02-16T13:56:29.928Z,2.27
2019-02-16T13:59:11.399Z,1.50
2019-02-16T14:03:09.172Z,1.23
2019-02-16T14:09:12.965Z,1.30
2019-02-16T14:12:14.534Z,1.83
2019-02-16T14:14:53.673Z,1.67
2019-02-16T14:17:41.724Z,1.13
2019-02-16T14:20:10.748Z,1.10
2019-02-16T14:22:40.448Z,1.70
2019-02-16T14:25:13.594Z,1.33
2019-02-16T14:27:44.523Z,1.60
2019-02-16T14:30:14.353Z,1.80
2019-02-16T14:32:44.895Z,1.30
2019-02-16T14:35:14.058Z,1.63
2019-02-16T14:37:50.735Z,1.00
2019-02-16T14:40:20.908Z,1.50
2019-02-16T14:42:50.704Z,1.67
2019-02-16T14:45:20.616Z,1.23
2019-02-16T14:47:51.956Z,1.13
2019-02-16T14:50:22.027Z,1.40
2019-02-16T14:52:54.114Z,1.40
2019-02-16T14:55:24.332Z,1.20
2019-02-16T14:57:57.540Z,1.13
2019-02-16T15:00:27.715Z,1.70
2019-02-16T15:03:00.902Z,1.40
2019-02-16T15:05:30.332Z,3.80
2019-02-16T15:08:02.358Z,2.13
2019-02-16T15:10:35.460Z,2.73
2019-02-16T15:13:08.584Z,3.80
2019-02-16T15:15:38.609Z,3.40
2019-02-16T15:18:08.681Z,2.67
2019-02-16T15:20:38.850Z,2.73
2019-02-16T15:23:10.614Z,2.73
2019-02-16T15:25:41.961Z,3.10
2019-02-16T15:28:13.049Z,3.10
2019-02-16T15:30:44.377Z,2.60
2019-02-16T15:33:14.322Z,2.60
2019-02-16T15:35:44.578Z,3.03
2019-02-16T15:38:14.676Z,2.77
2019-02-16T15:40:45.522Z,2.27
2019-02-16T15:43:16.662Z,2.30
2019-02-16T15:45:46.984Z,2.20
2019-02-16T15:48:17.286Z,2.10
2019-02-16T15:50:48.079Z,2.50
2019-02-16T15:53:17.962Z,2.10
2019-02-16T15:55:50.102Z,2.60
2019-02-16T15:58:20.988Z,2.40
2019-02-16T16:00:51.592Z,3.07
2019-02-16T16:03:22.177Z,2.43
2019-02-16T16:05:52.000Z,2.37
2019-02-16T16:08:39.951Z,2.00
2019-02-16T16:11:18.467Z,1.70
2019-02-16T16:14:16.395Z,2.60
2019-02-16T16:16:55.625Z,4.50
2019-02-16T16:19:35.559Z,3.10
2019-02-16T16:22:28.755Z,3.80
2019-02-16T16:25:30.056Z,3.73
2019-02-16T16:28:22.815Z,4.30
2019-02-16T16:31:01.014Z,4.10
2019-02-16T16:33:59.400Z,3.80
2019-02-16T16:36:48.319Z,4.83
2019-02-16T16:39:25.299Z,5.27
2019-02-16T16:42:08.502Z,4.73
2019-02-16T16:44:44.801Z,5.47
2019-02-16T16:47:31.505Z,5.17
2019-02-16T16:50:18.690Z,5.17
2019-02-16T16:53:05.691Z,5.50
2019-02-16T16:55:56.855Z,6.73
2019-02-16T16:58:39.327Z,6.17
2019-02-16T17:01:26.582Z,6.67
2019-02-16T17:04:19.413Z,6.20
2019-02-16T17:07:26.503Z,4.43
2019-02-16T17:10:18.975Z,5.70
2019-02-16T17:13:17.088Z,6.73
2019-02-16T17:16:04.051Z,6.70
2019-02-16T17:19:09.741Z,6.53
2019-02-16T17:22:10.977Z,8.10
2019-02-16T17:24:52.200Z,7.47
2019-02-16T17:27:33.086Z,7.07
2019-02-16T17:30:17.830Z,6.83
2019-02-16T17:33:12.303Z,6.80
2019-02-16T17:36:02.261Z,8.00
2019-02-16T17:38:41.077Z,7.23
2019-02-16T17:41:26.168Z,8.40
2019-02-16T17:44:17.876Z,8.43
2019-02-16T17:47:09.434Z,7.87
2019-02-16T17:49:58.469Z,8.90
2019-02-16T17:52:54.041Z,8.63
2019-02-16T17:55:51.316Z,8.50
2019-02-16T17:58:31.260Z,7.40
2019-02-16T18:01:21.561Z,7.07
2019-02-16T18:04:03.281Z,8.17
2019-02-16T18:06:42.264Z,7.17
2019-02-16T18:09:30.741Z,6.47
2019-02-16T18:12:37.666Z,7.03
2019-02-16T18:15:29.480Z,10.53
2019-02-16T18:18:14.428Z,10.23
2019-02-16T18:21:06.534Z,9.63
2019-02-16T18:23:57.450Z,12.60
2019-02-16T18:26:45.892Z,12.20
2019-02-16T18:29:28.848Z,10.60
2019-02-16T18:32:35.941Z,11.10
2019-02-16T18:35:24.209Z,10.13
2019-02-16T18:38:16.085Z,9.03
2019-02-16T18:41:20.439Z,9.13
2019-02-16T18:44:14.635Z,10.27
2019-02-16T18:47:07.331Z,11.07
2019-02-16T18:50:01.599Z,9.73
2019-02-16T18:52:59.271Z,9.97
2019-02-16T18:55:44.757Z,9.77
2019-02-16T18:58:42.658Z,9.63
2019-02-16T19:01:31.009Z,8.77
2019-02-16T19:04:19.569Z,9.60
2019-02-16T19:06:58.667Z,10.53
2019-02-16T19:09:50.179Z,12.43
2019-02-16T19:12:37.201Z,10.73
2019-02-16T19:15:33.921Z,10.77
2019-02-16T19:18:13.305Z,12.33
2019-02-16T19:21:05.430Z,11.03
2019-02-16T19:23:49.161Z,11.03
2019-02-16T19:26:40.830Z,10.07
2019-02-16T19:29:42.025Z,11.87
2019-02-16T19:32:23.069Z,9.50
2019-02-16T19:35:14.604Z,11.27
2019-02-16T19:38:15.226Z,11.50
2019-02-16T19:41:10.500Z,11.73
2019-02-16T19:44:02.889Z,11.03
2019-02-16T19:46:52.673Z,11.27
2019-02-16T19:49:42.059Z,9.43
2019-02-16T19:52:33.615Z,8.43
2019-02-16T19:55:22.454Z,9.20
2019-02-16T19:58:05.871Z,9.30
2019-02-16T20:00:53.182Z,9.20
2019-02-16T20:03:38.637Z,9.57
2019-02-16T20:06:36.080Z,9.13
2019-02-16T20:09:25.321Z,8.60
2019-02-16T20:12:25.822Z,8.97
2019-02-16T20:15:24.305Z,8.40
2019-02-16T20:18:26.414Z,9.10
2019-02-16T20:21:15.107Z,9.00
2019-02-16T20:24:26.816Z,9.87
2019-02-16T20:27:20.844Z,8.17
2019-02-16T20:30:18.189Z,9.77
2019-02-16T20:33:19.621Z,9.40
2019-02-16T20:36:08.654Z,9.73
2019-02-16T20:38:57.479Z,9.23
2019-02-16T20:41:34.684Z,8.87
2019-02-16T20:44:42.223Z,9.57
2019-02-16T20:47:25.122Z,8.60
2019-02-16T20:50:13.393Z,8.43
2019-02-16T20:52:57.333Z,7.60
2019-02-16T20:55:43.582Z,7.10
2019-02-16T20:58:26.498Z,8.57
2019-02-16T21:01:23.685Z,8.53
2019-02-16T21:04:07.259Z,8.30
2019-02-16T21:06:56.359Z,8.77
2019-02-16T21:09:35.734Z,7.70
2019-02-16T21:12:23.935Z,9.10
2019-02-16T21:15:15.390Z,8.97
2019-02-16T21:18:11.691Z,9.53
2019-02-16T21:21:09.710Z,9.80
2019-02-16T21:23:58.717Z,9.23
2019-02-16T21:26:39.871Z,8.90
2019-02-16T21:29:32.269Z,8.10
2019-02-16T21:32:30.815Z,7.93
2019-02-16T21:35:17.856Z,6.53
2019-02-16T21:38:22.157Z,5.80
2019-02-16T21:41:07.661Z,5.87
2019-02-16T21:43:44.918Z,5.23
2019-02-16T21:46:33.192Z,5.37
2019-02-16T21:49:21.775Z,5.47
2019-02-16T21:52:01.747Z,5.50
2019-02-16T21:55:00.505Z,5.03
2019-02-16T21:58:08.167Z,5.30
2019-02-16T22:00:51.921Z,5.07
2019-02-16T22:03:39.115Z,4.70
2019-02-16T22:06:27.940Z,4.47
2019-02-16T22:09:16.027Z,4.23
2019-02-16T22:12:04.991Z,4.10
2019-02-16T22:14:37.792Z,4.23
2019-02-16T22:17:07.144Z,3.97
2019-02-16T22:19:36.451Z,3.97
2019-02-16T22:22:14.711Z,3.53
2019-02-16T22:24:43.972Z,3.93
2019-02-16T22:27:13.930Z,3.97
2019-02-16T22:29:44.255Z,5.10
2019-02-16T22:32:13.648Z,4.60
2019-02-16T22:34:44.655Z,4.53
2019-02-16T22:37:14.139Z,4.20
2019-02-16T22:39:43.995Z,4.37
2019-02-16T22:42:13.928Z,5.97
2019-02-16T22:44:45.590Z,5.50
2019-02-16T22:47:16.449Z,4.63
2019-02-16T22:49:49.347Z,4.43
2019-02-16T22:52:19.076Z,4.33
2019-02-16T22:54:48.836Z,4.17
2019-02-16T22:57:22.060Z,3.77
2019-02-16T22:59:52.543Z,4.10
2019-02-16T23:02:22.447Z,3.27
2019-02-16T23:04:52.182Z,3.83
2019-02-16T23:07:21.893Z,4.83
2019-02-16T23:09:51.399Z,4.40
2019-02-16T23:12:21.350Z,4.20
2019-02-16T23:14:51.665Z,4.70
2019-02-16T23:17:22.639Z,5.00
2019-02-16T23:19:52.489Z,4.60
2019-02-16T23:22:22.339Z,5.00
2019-02-16T23:24:51.849Z,5.27
2019-02-16T23:27:21.602Z,5.07
2019-02-16T23:29:51.590Z,3.90
2019-02-16T23:32:21.631Z,5.00
2019-02-16T23:34:52.010Z,5.47
2019-02-16T23:37:24.427Z,4.63
2019-02-16T23:39:54.084Z,4.57
2019-02-16T23:42:23.238Z,3.60
2019-02-16T23:44:52.953Z,5.37
2019-02-16T23:47:22.888Z,4.20
2019-02-16T23:49:52.654Z,6.03
2019-02-16T23:52:25.120Z,5.10
2019-02-16T23:54:56.699Z,5.93
2019-02-16T23:57:28.053Z,6.00
2019-02-16T23:59:58.159Z,6.10
